Time;durP1;ratioP1;P1;durP2;ratioP2;P2;SDS_P1;SDS_P2;PMS_P1;PMS_P2;Temp;Humidity;BMP_temperature;BMP_pressure;BME280_temperature;BME280_humidity;BME280_pressure;Samples;Min_cycle;Max_cycle;Signal;HPM_P1;HPM_P2
2021/12/22 00:00:17;;;;;;;21.85;12.75;;;;;;;-1.16;79.37;99913.84;6153693;23;20092;-77
2021/12/22 00:02:46;;;;;;;24.20;13.88;;;;;;;-1.15;79.97;99910.22;6102858;23;20289;-77
2021/12/22 00:05:44;;;;;;;26.90;14.65;;;;;;;-1.19;79.89;99911.50;6079502;23;20009;-77
2021/12/22 00:08:12;;;;;;;25.60;15.07;;;;;;;-1.18;79.46;99913.16;6127126;23;20063;-77
2021/12/22 00:10:38;;;;;;;26.58;14.40;;;;;;;-1.20;80.02;99910.66;6102905;23;20117;-77
2021/12/22 00:13:04;;;;;;;26.17;14.77;;;;;;;-1.30;79.87;99893.38;6102447;23;20044;-77
2021/12/22 00:15:30;;;;;;;24.98;13.93;;;;;;;-1.20;79.71;99910.66;6078230;23;20025;-77
2021/12/22 00:17:55;;;;;;;27.55;14.65;;;;;;;-1.20;79.87;99907.25;6126983;23;20017;-77
2021/12/22 00:20:21;;;;;;;32.75;15.93;;;;;;;-1.20;79.22;99907.25;6078604;23;20356;-77
2021/12/22 00:22:46;;;;;;;28.15;15.85;;;;;;;-1.21;79.65;99910.81;6080002;23;20440;-77
2021/12/22 00:25:12;;;;;;;28.23;14.48;;;;;;;-1.20;80.14;99909.88;6104877;23;20013;-77
2021/12/22 00:27:38;;;;;;;28.17;16.00;;;;;;;-1.20;79.86;99907.25;6130844;23;20092;-77
2021/12/22 00:30:05;;;;;;;28.05;15.70;;;;;;;-1.20;78.92;99912.50;6152224;23;20005;-77
2021/12/22 00:32:32;;;;;;;30.02;16.98;;;;;;;-1.21;79.98;99909.03;6152531;23;20031;-77
2021/12/22 00:34:58;;;;;;;24.38;14.32;;;;;;;-1.20;79.61;99910.66;6101614;23;20006;-77
2021/12/22 00:37:28;;;;;;;28.15;14.77;;;;;;;-1.20;80.13;99917.72;6151771;23;20013;-77
2021/12/22 00:39:55;;;;;;;30.85;16.48;;;;;;;-1.21;79.36;99908.22;6149159;23;20068;-77
2021/12/22 00:42:21;;;;;;;29.02;16.08;;;;;;;-1.20;79.37;99913.28;6127280;23;20068;-77
2021/12/22 00:44:51;;;;;;;32.25;16.13;;;;;;;-1.20;79.82;99909.88;6151183;23;20005;-77
2021/12/22 00:47:17;;;;;;;30.48;15.93;;;;;;;-1.20;79.57;99908.06;6128564;23;20017;-77
2021/12/22 00:49:43;;;;;;;31.17;15.70;;;;;;;-1.20;79.18;99904.63;6152334;23;20001;-77
2021/12/22 00:52:08;;;;;;;29.73;16.52;;;;;;;-1.27;79.61;99906.19;6128609;23;20085;-77
2021/12/22 00:54:34;;;;;;;26.10;13.85;;;;;;;-1.21;79.61;99918.69;6126379;23;20100;-77
2021/12/22 00:57:04;;;;;;;30.92;15.75;;;;;;;-1.25;79.79;99905.06;6103260;23;20017;-77
2021/12/22 00:59:32;;;;;;;27.92;15.82;;;;;;;-1.22;79.97;99917.06;6103339;23;20013;-77
2021/12/22 01:01:58;;;;;;;27.30;15.05;;;;;;;-1.22;79.93;99909.19;6151417;23;20092;-77
2021/12/22 01:04:23;;;;;;;33.30;17.55;;;;;;;-1.31;79.18;99895.16;6149995;23;20419;-77
2021/12/22 01:06:49;;;;;;;30.15;15.93;;;;;;;-1.32;79.36;99890.09;6125459;23;20013;-77
2021/12/22 01:09:14;;;;;;;28.58;15.48;;;;;;;-1.32;79.85;99892.69;6079460;23;20496;-77
2021/12/22 01:11:40;;;;;;;30.48;16.23;;;;;;;-1.24;79.46;99898.84;6128595;23;20032;-77
2021/12/22 01:14:05;;;;;;;32.50;16.85;;;;;;;-1.27;79.79;99899.16;6102116;23;20032;-77
2021/12/22 01:16:31;;;;;;;32.75;17.63;;;;;;;-1.23;79.75;99912.78;6127577;23;20076;-77
2021/12/22 01:19:00;;;;;;;29.00;16.40;;;;;;;-1.23;79.11;99916.22;6126207;23;20041;-76
2021/12/22 01:21:39;;;;;;;39.03;18.58;;;;;;;-1.25;79.43;99902.47;6152293;23;20045;-76
2021/12/22 01:24:15;;;;;;;35.30;17.70;;;;;;;-1.25;80.03;99906.88;6127274;23;20020;-76
2021/12/22 01:26:46;;;;;;;30.08;16.40;;;;;;;-1.27;79.17;99909.63;6129232;23;20005;-77
2021/12/22 01:29:13;;;;;;;34.05;17.38;;;;;;;-1.25;79.28;99914.72;6151111;23;20009;-76
2021/12/22 01:31:41;;;;;;;34.55;17.83;;;;;;;-1.26;79.29;99913.06;6152515;23;20009;-77
2021/12/22 01:34:06;;;;;;;34.60;16.88;;;;;;;-1.27;79.89;99916.66;6103095;23;20009;-77
2021/12/22 01:36:32;;;;;;;27.50;15.68;;;;;;;-1.27;79.83;99914.03;6152161;23;20306;-77
2021/12/22 01:38:58;;;;;;;30.45;16.35;;;;;;;-1.26;79.33;99910.44;6151402;23;20033;-77
2021/12/22 01:41:24;;;;;;;29.98;17.08;;;;;;;-1.27;79.90;99907.03;6152550;23;20008;-77
2021/12/22 01:43:50;;;;;;;34.25;16.70;;;;;;;-1.25;79.88;99906.88;6150509;23;20002;-76
2021/12/22 01:49:11;;;;;;;34.00;18.55;;;;;;;-1.27;79.74;99914.03;6160009;23;20102;-77
2021/12/22 01:51:55;;;;;;;35.08;17.25;;;;;;;-1.30;79.79;99906.47;6081153;23;20012;-77
2021/12/22 01:54:21;;;;;;;31.17;17.33;;;;;;;-1.30;78.98;99911.72;6126929;23;20002;-77
2021/12/22 01:56:49;;;;;;;35.13;18.75;;;;;;;-1.29;79.24;99908.13;6126274;23;20009;-77
2021/12/22 01:59:14;;;;;;;30.88;16.15;;;;;;;-1.31;79.59;99899.59;6101448;23;20020;-77
2021/12/22 02:01:41;;;;;;;30.55;16.90;;;;;;;-1.39;79.97;99889.84;6125928;23;20017;-77
2021/12/22 02:04:10;;;;;;;34.85;16.95;;;;;;;-1.31;79.51;99907.47;6124922;23;20029;-76
2021/12/22 02:06:41;;;;;;;31.58;15.35;;;;;;;-1.30;79.02;99909.91;6103614;23;20017;-77
2021/12/22 02:09:08;;;;;;;32.08;16.77;;;;;;;-1.33;79.01;99906.78;6125543;23;20010;-76
2021/12/22 02:11:34;;;;;;;31.13;15.57;;;;;;;-1.44;79.36;99886.84;6103394;23;20017;-76
2021/12/22 02:14:03;;;;;;;31.60;16.52;;;;;;;-1.35;79.87;99906.91;6100584;23;20044;-77
2021/12/22 02:16:32;;;;;;;25.42;14.68;;;;;;;-1.33;78.74;99899.72;6150929;23;20029;-76
2021/12/22 02:19:00;;;;;;;27.42;16.63;;;;;;;-1.36;79.47;99901.81;6126855;23;20401;-77
2021/12/22 02:21:30;;;;;;;26.73;16.33;;;;;;;-1.36;79.53;99892.19;6078201;23;20103;-77
2021/12/22 02:23:56;;;;;;;29.38;15.77;;;;;;;-1.37;79.31;99905.41;6126977;23;20771;-77
2021/12/22 02:26:48;;;;;;;29.77;16.63;;;;;;;-1.37;79.70;99901.00;6079052;23;20111;-77
2021/12/22 02:29:18;;;;;;;28.77;16.88;;;;;;;-1.39;79.51;99904.72;6128729;23;20017;-76
2021/12/22 02:31:48;;;;;;;27.33;15.70;;;;;;;-1.40;79.14;99901.31;6127135;23;20019;-76
2021/12/22 02:34:15;;;;;;;28.70;15.18;;;;;;;-1.40;79.31;99913.56;6102588;23;20025;-77
2021/12/22 02:36:43;;;;;;;32.03;16.17;;;;;;;-1.45;79.02;99892.22;6127399;23;20005;-77
2021/12/22 02:39:09;;;;;;;33.28;16.23;;;;;;;-1.42;79.46;99911.06;6103654;23;20013;-77
2021/12/22 02:41:37;;;;;;;31.95;15.85;;;;;;;-1.42;78.92;99913.69;6103454;23;20020;-78
2021/12/22 02:44:04;;;;;;;34.72;16.40;;;;;;;-1.43;78.35;99917.28;6128285;23;20059;-77
2021/12/22 02:46:32;;;;;;;27.60;15.75;;;;;;;-1.43;78.48;99917.28;6103951;23;20009;-78
2021/12/22 02:49:00;;;;;;;32.08;16.63;;;;;;;-1.43;78.63;99909.44;6152503;23;20421;-77
2021/12/22 02:51:30;;;;;;;24.10;14.80;;;;;;;-1.44;78.76;99913.00;6150870;23;20009;-77
2021/12/22 02:54:13;;;;;;;28.70;15.75;;;;;;;-1.45;78.32;99918.41;6103325;23;20067;-77
2021/12/22 02:59:38;;;;;;;33.55;16.70;;;;;;;-1.47;78.86;99926.41;6135571;23;20018;-77
2021/12/22 03:02:13;;;;;;;28.08;15.48;;;;;;;-1.49;78.72;99930.97;6128799;23;20013;-77
2021/12/22 03:04:49;;;;;;;35.75;16.90;;;;;;;-1.49;78.38;99935.38;6124704;23;20122;-77
2021/12/22 03:07:17;;;;;;;30.42;15.93;;;;;;;-1.51;78.23;99930.28;6078849;23;20407;-76
2021/12/22 03:09:43;;;;;;;32.28;17.42;;;;;;;-1.48;79.18;99935.22;6124513;23;20420;-76
2021/12/22 03:12:12;;;;;;;28.20;16.48;;;;;;;-1.52;78.96;99934.69;6103125;23;20010;-76
2021/12/22 03:14:39;;;;;;;32.45;16.95;;;;;;;-1.49;78.69;99945.84;6127559;23;20014;-76
2021/12/22 03:17:04;;;;;;;30.70;16.83;;;;;;;-1.49;78.52;99935.38;6151752;23;20509;-76
2021/12/22 03:19:36;;;;;;;34.25;17.08;;;;;;;-1.51;78.99;99925.06;6126300;23;20005;-76
2021/12/22 03:22:07;;;;;;;30.58;16.48;;;;;;;-1.53;78.63;99925.19;6103508;23;20001;-77
2021/12/22 03:24:35;;;;;;;34.22;16.95;;;;;;;-1.53;78.87;99924.38;6127295;23;20443;-76
2021/12/22 03:27:03;;;;;;;32.22;17.42;;;;;;;-1.52;78.94;99920.78;6127910;23;20009;-77
2021/12/22 03:29:30;;;;;;;27.77;17.23;;;;;;;-1.52;78.85;99910.31;6128229;23;20009;-76
2021/12/22 03:31:56;;;;;;;30.33;16.52;;;;;;;-1.53;78.20;99913.91;6152503;23;20005;-77
2021/12/22 03:34:21;;;;;;;40.30;18.15;;;;;;;-1.54;78.88;99922.72;6078807;23;20057;-77
2021/12/22 03:36:47;;;;;;;26.38;16.80;;;;;;;-1.55;78.38;99924.50;6151672;23;20011;-75
2021/12/22 03:39:13;;;;;;;32.55;17.77;;;;;;;-1.55;78.28;99921.88;6102888;23;20043;-76
2021/12/22 03:41:40;;;;;;;33.05;18.30;;;;;;;-1.55;78.11;99914.03;6127794;23;20337;-77
2021/12/22 03:44:06;;;;;;;34.60;18.88;;;;;;;-1.56;77.96;99919.44;6128017;23;20017;-77
2021/12/22 03:46:33;;;;;;;37.85;18.17;;;;;;;-1.57;77.80;99920.38;6152510;23;20084;-76
2021/12/22 03:48:59;;;;;;;33.67;18.65;;;;;;;-1.57;78.30;99917.78;6127535;23;20100;-77
2021/12/22 03:51:26;;;;;;;32.75;17.15;;;;;;;-1.58;78.09;99914.34;6103703;23;20065;-76
2021/12/22 03:53:51;;;;;;;38.20;19.85;;;;;;;-1.59;78.63;99909.25;6103675;23;20017;-76
2021/12/22 03:56:17;;;;;;;36.88;18.45;;;;;;;-1.59;77.54;99911.84;6104150;23;20009;-76
2021/12/22 03:58:42;;;;;;;32.60;18.00;;;;;;;-1.60;77.49;99913.69;6128343;23;20005;-77
2021/12/22 04:01:07;;;;;;;35.10;17.42;;;;;;;-1.62;78.53;99912.97;6153029;23;20041;-77
2021/12/22 04:03:35;;;;;;;33.00;17.60;;;;;;;-1.62;77.50;99909.53;6128284;23;20021;-76
2021/12/22 04:06:01;;;;;;;32.78;16.95;;;;;;;-1.71;78.21;99897.31;6128646;23;20081;-76
2021/12/22 04:08:30;;;;;;;33.28;18.33;;;;;;;-1.64;78.34;99917.53;6080115;23;20035;-77
2021/12/22 04:10:56;;;;;;;29.80;16.65;;;;;;;-1.64;77.65;99912.28;6154144;23;19997;-77
2021/12/22 04:13:21;;;;;;;32.85;17.73;;;;;;;-1.64;77.98;99901.81;6104147;23;20009;-77
2021/12/22 04:15:47;;;;;;;30.58;17.02;;;;;;;-1.66;78.12;99911.63;6127867;23;20578;-77
2021/12/22 04:18:14;;;;;;;35.80;18.02;;;;;;;-1.67;78.16;99911.75;6152470;23;20051;-77
2021/12/22 04:20:40;;;;;;;32.85;18.45;;;;;;;-1.68;78.16;99918.78;6103297;23;20021;-76
2021/12/22 04:23:06;;;;;;;38.38;19.60;;;;;;;-1.67;78.29;99920.44;6102847;23;20020;-77
2021/12/22 04:25:32;;;;;;;38.95;19.23;;;;;;;-1.68;77.50;99910.09;6103247;23;20029;-77
2021/12/22 04:28:04;;;;;;;32.00;18.48;;;;;;;-1.70;77.82;99901.56;6079513;23;20444;-76
2021/12/22 04:30:32;;;;;;;37.95;19.95;;;;;;;-1.69;77.97;99905.84;6151847;23;20060;-77
2021/12/22 04:32:57;;;;;;;34.75;17.58;;;;;;;-1.71;77.80;99898.16;6127735;23;20472;-76
2021/12/22 04:35:23;;;;;;;33.90;18.67;;;;;;;-1.76;77.60;99887.28;6151724;23;20088;-77
2021/12/22 04:37:49;;;;;;;29.77;17.05;;;;;;;-1.77;77.26;99888.25;6126950;23;20005;-78
2021/12/22 04:40:14;;;;;;;30.30;17.55;;;;;;;-1.74;77.83;99895.81;6127229;23;20006;-77
2021/12/22 04:42:39;;;;;;;38.10;19.00;;;;;;;-1.74;78.05;99901.06;6103303;23;20017;-77
2021/12/22 04:45:07;;;;;;;32.45;18.95;;;;;;;-1.75;77.82;99894.16;6079694;23;20009;-77
2021/12/22 04:47:33;;;;;;;29.58;17.30;;;;;;;-1.76;77.83;99889.06;6128084;23;20013;-77
2021/12/22 04:50:13;;;;;;;33.55;19.15;;;;;;;-1.79;77.12;99890.19;6152757;23;20425;-77
2021/12/22 04:52:47;;;;;;;36.65;19.13;;;;;;;-1.77;77.31;99885.63;6152536;23;20005;-77
2021/12/22 04:55:12;;;;;;;32.95;18.15;;;;;;;-1.78;77.38;99888.41;6129609;23;20063;-77
2021/12/22 04:57:37;;;;;;;27.08;16.58;;;;;;;-1.79;78.19;99889.38;6104477;23;20384;-77
2021/12/22 05:00:07;;;;;;;35.53;17.70;;;;;;;-1.77;77.21;99884.84;6152348;23;20753;-77
2021/12/22 05:02:33;;;;;;;36.58;18.42;;;;;;;-1.76;77.17;99886.47;6103362;23;20006;-77
2021/12/22 05:04:58;;;;;;;39.33;21.60;;;;;;;-1.80;77.38;99880.72;6129731;23;20052;-77
2021/12/22 05:07:24;;;;;;;35.88;20.05;;;;;;;-1.84;77.77;99875.91;6103942;23;20013;-77
2021/12/22 05:09:50;;;;;;;35.25;17.35;;;;;;;-1.76;77.61;99881.22;6128632;23;20002;-77
2021/12/22 05:12:15;;;;;;;39.22;19.75;;;;;;;-1.77;77.62;99888.25;6104500;23;20012;-77
2021/12/22 05:14:44;;;;;;;39.20;20.15;;;;;;;-1.78;77.65;99881.38;6079509;23;20037;-76
2021/12/22 05:17:17;;;;;;;33.28;19.13;;;;;;;-1.78;77.41;99878.75;6104960;23;20013;-76
2021/12/22 05:19:43;;;;;;;37.70;18.85;;;;;;;-1.77;77.40;99893.47;6106558;23;20013;-78
2021/12/22 05:22:08;;;;;;;35.20;18.83;;;;;;;-1.84;77.69;99889.81;6081580;23;20001;-78
2021/12/22 05:24:34;;;;;;;32.55;17.67;;;;;;;-1.78;77.32;99885.78;6156185;23;20013;-78
2021/12/22 05:26:59;;;;;;;32.85;17.05;;;;;;;-1.77;77.32;99890.06;6081363;23;20037;-78
2021/12/22 05:29:24;;;;;;;38.78;17.90;;;;;;;-1.79;77.26;99887.56;6130269;23;20432;-78
2021/12/22 05:31:54;;;;;;;34.58;17.85;;;;;;;-1.80;77.29;99888.56;6081365;23;20006;-78
2021/12/22 05:34:19;;;;;;;37.33;17.75;;;;;;;-1.79;77.19;99886.78;6106078;23;20013;-78
2021/12/22 05:36:45;;;;;;;35.33;19.25;;;;;;;-1.79;78.13;99886.78;6105387;23;20100;-78
2021/12/22 05:39:10;;;;;;;29.77;17.98;;;;;;;-1.80;77.39;99878.09;6105054;23;20490;-79
2021/12/22 05:41:36;;;;;;;32.42;17.05;;;;;;;-1.81;77.30;99878.22;6082209;23;20060;-80
2021/12/22 05:44:01;;;;;;;37.67;17.30;;;;;;;-1.79;77.76;99879.72;6105864;23;20021;-78
2021/12/22 05:46:26;;;;;;;33.70;19.48;;;;;;;-1.78;77.40;99880.56;6081210;23;20048;-78
2021/12/22 05:48:53;;;;;;;33.95;17.52;;;;;;;-1.78;77.19;99881.38;6105150;23;20021;-78
2021/12/22 05:51:18;;;;;;;37.58;19.63;;;;;;;-1.78;78.16;99877.94;6154184;23;20016;-78
2021/12/22 05:53:44;;;;;;;33.00;18.58;;;;;;;-1.80;78.15;99870.25;6129749;23;20013;-78
2021/12/22 05:56:12;;;;;;;39.35;18.65;;;;;;;-1.79;77.50;99879.72;6081318;23;20339;-78
2021/12/22 05:58:37;;;;;;;33.33;19.23;;;;;;;-1.79;78.10;99881.53;6105452;23;20010;-78
2021/12/22 06:01:02;;;;;;;34.13;18.58;;;;;;;-1.83;77.95;99875.75;6081454;23;20002;-78
2021/12/22 06:03:28;;;;;;;38.20;20.00;;;;;;;-1.80;77.64;99891.16;6130053;23;20010;-78
2021/12/22 06:05:53;;;;;;;31.58;16.95;;;;;;;-1.80;77.39;99885.94;6081500;23;20017;-78
2021/12/22 06:08:19;;;;;;;37.17;19.13;;;;;;;-1.80;77.15;99888.56;6105453;23;20005;-78
2021/12/22 06:10:44;;;;;;;34.90;17.73;;;;;;;-1.81;78.06;99893.91;6081344;23;20005;-78
2021/12/22 06:13:11;;;;;;;35.55;19.52;;;;;;;-1.80;77.31;99912.09;6105440;23;20391;-78
2021/12/22 06:15:38;;;;;;;42.60;20.95;;;;;;;-1.78;77.46;99907.53;6129603;23;20352;-78
2021/12/22 06:18:04;;;;;;;31.85;19.70;;;;;;;-1.78;77.66;99904.94;6157500;23;20016;-78
2021/12/22 06:20:31;;;;;;;41.47;20.35;;;;;;;-1.78;77.85;99910.16;6083516;23;20013;-78
2021/12/22 06:22:57;;;;;;;40.00;20.10;;;;;;;-1.79;78.14;99908.50;6157423;23;20010;-78
2021/12/22 06:25:24;;;;;;;42.10;20.75;;;;;;;-1.80;77.35;99909.50;6157377;23;20121;-78
2021/12/22 06:27:50;;;;;;;41.22;20.90;;;;;;;-1.80;77.40;99913.88;6156525;23;20009;-78
2021/12/22 06:30:16;;;;;;;38.90;19.10;;;;;;;-1.80;77.64;99911.28;6155903;23;20005;-78
2021/12/22 06:32:41;;;;;;;42.80;20.95;;;;;;;-1.79;77.18;99913.72;6155892;23;20317;-78
2021/12/22 06:35:07;;;;;;;42.80;19.88;;;;;;;-1.80;78.19;99911.28;6083228;23;20016;-78
2021/12/22 06:37:33;;;;;;;36.95;19.20;;;;;;;-1.82;77.96;99906.19;6155892;23;20136;-78
2021/12/22 06:39:59;;;;;;;43.90;20.02;;;;;;;-1.85;77.88;99890.78;6131746;23;20041;-78
2021/12/22 06:42:25;;;;;;;41.55;21.63;;;;;;;-1.80;78.12;99909.50;6107247;23;20029;-78
2021/12/22 06:44:50;;;;;;;45.30;21.50;;;;;;;-1.80;77.17;99908.66;6156092;23;20006;-77
2021/12/22 06:47:16;;;;;;;41.65;20.48;;;;;;;-1.79;77.80;99907.69;6157559;23;20059;-78
2021/12/22 06:49:41;;;;;;;41.15;21.45;;;;;;;-1.80;77.60;99912.09;6107907;23;20017;-78
2021/12/22 06:52:07;;;;;;;35.08;18.88;;;;;;;-1.81;77.32;99915.66;6158749;23;20076;-78
2021/12/22 06:54:32;;;;;;;35.63;20.00;;;;;;;-1.81;78.13;99920.91;6132894;23;20036;-77
2021/12/22 06:56:58;;;;;;;35.97;19.00;;;;;;;-1.83;77.75;99908.94;6157618;23;20037;-78
2021/12/22 06:59:25;;;;;;;40.22;21.17;;;;;;;-1.82;77.25;99919.28;6110339;23;20028;-78
2021/12/22 07:01:51;;;;;;;41.30;21.70;;;;;;;-1.89;77.12;99912.13;6086629;23;20010;-78
2021/12/22 07:04:19;;;;;;;37.00;19.52;;;;;;;-1.95;77.27;99915.31;6111089;23;20392;-78
2021/12/22 07:06:46;;;;;;;38.15;19.48;;;;;;;-2.05;76.73;99906.69;6159703;23;20006;-78
2021/12/22 07:09:11;;;;;;;40.13;21.15;;;;;;;-2.08;77.38;99906.97;6135455;23;20367;-78
2021/12/22 07:11:38;;;;;;;43.55;20.92;;;;;;;-2.13;77.22;99914.41;6136004;23;20012;-78
2021/12/22 07:14:06;;;;;;;32.38;18.05;;;;;;;-2.19;77.16;99899.28;6135387;23;20092;-78
2021/12/22 07:16:32;;;;;;;43.22;20.48;;;;;;;-2.28;77.62;99900.97;6134127;23;20142;-78
2021/12/22 07:18:57;;;;;;;41.03;20.52;;;;;;;-2.28;78.29;99900.97;6158288;23;20015;-78
2021/12/22 07:21:24;;;;;;;42.55;21.52;;;;;;;-2.24;78.01;99904.94;6133660;23;20014;-78
2021/12/22 07:23:49;;;;;;;39.25;22.48;;;;;;;-2.23;78.54;99909.22;6154901;23;20056;-77
2021/12/22 07:26:15;;;;;;;37.85;19.08;;;;;;;-2.35;78.97;99877.19;6129647;23;20013;-77
2021/12/22 07:28:42;;;;;;;38.10;18.98;;;;;;;-2.19;78.41;99901.91;6129485;23;20500;-77
2021/12/22 07:31:08;;;;;;;36.33;19.73;;;;;;;-2.18;78.95;99906.19;6103815;23;20013;-77
2021/12/22 07:33:33;;;;;;;36.33;19.00;;;;;;;-2.15;78.84;99914.56;6127662;23;20172;-76
2021/12/22 07:36:02;;;;;;;36.08;20.67;;;;;;;-2.17;78.42;99906.03;6080245;23;20032;-77
2021/12/22 07:38:35;;;;;;;37.85;19.15;;;;;;;-2.13;79.12;99903.94;6129209;23;20010;-77
2021/12/22 07:41:03;;;;;;;36.92;19.02;;;;;;;-2.20;78.26;99890.59;6129619;23;20345;-77
2021/12/22 07:43:30;;;;;;;33.85;19.05;;;;;;;-2.12;78.49;99903.00;6129996;23;20013;-77
2021/12/22 07:45:56;;;;;;;37.97;20.73;;;;;;;-2.11;78.28;99902.84;6154055;23;20009;-77
2021/12/22 07:48:22;;;;;;;37.10;19.25;;;;;;;-2.08;79.09;99907.78;6129695;23;20432;-77
2021/12/22 07:50:47;;;;;;;40.08;19.48;;;;;;;-2.08;78.59;99904.34;6129636;23;20085;-77
2021/12/22 07:53:13;;;;;;;33.25;18.30;;;;;;;-2.08;79.09;99902.56;6129556;23;20012;-77
2021/12/22 07:55:38;;;;;;;39.50;20.40;;;;;;;-2.09;79.07;99907.91;6105121;23;20009;-77
2021/12/22 07:58:04;;;;;;;36.30;18.63;;;;;;;-2.31;78.56;99872.47;6128901;23;20092;-77
2021/12/22 08:00:30;;;;;;;37.05;20.13;;;;;;;-2.07;78.46;99905.97;6080807;23;20010;-77
2021/12/22 08:02:56;;;;;;;37.25;19.55;;;;;;;-2.07;78.00;99917.28;6154045;23;20055;-77
2021/12/22 08:05:22;;;;;;;34.70;18.52;;;;;;;-2.06;78.80;99910.25;6129336;23;20013;-77
2021/12/22 08:07:47;;;;;;;34.58;19.55;;;;;;;-2.09;78.16;99911.38;6129554;23;20005;-77
2021/12/22 08:10:15;;;;;;;41.03;19.77;;;;;;;-2.07;79.06;99909.44;6152830;23;20005;-78
2021/12/22 08:12:40;;;;;;;36.17;18.55;;;;;;;-2.04;78.07;99905.72;6154295;23;20361;-78
2021/12/22 08:15:06;;;;;;;39.08;19.17;;;;;;;-2.02;79.07;99901.16;6104561;23;20510;-78
2021/12/22 08:17:32;;;;;;;37.78;19.27;;;;;;;-2.03;79.06;99902.13;6128891;23;20016;-78
2021/12/22 08:19:59;;;;;;;43.42;20.17;;;;;;;-2.02;78.75;99902.00;6128946;23;20021;-78
2021/12/22 08:22:24;;;;;;;32.60;17.98;;;;;;;-2.00;78.07;99907.91;6102443;23;20100;-78
2021/12/22 08:24:50;;;;;;;35.05;17.90;;;;;;;-2.01;78.48;99895.78;6153142;23;20040;-77
2021/12/22 08:27:17;;;;;;;32.83;17.30;;;;;;;-2.04;78.66;99887.41;6129035;23;20064;-78
2021/12/22 08:29:44;;;;;;;34.40;17.75;;;;;;;-1.98;78.06;99890.28;6128528;23;20022;-78
2021/12/22 08:32:10;;;;;;;34.17;17.70;;;;;;;-1.96;78.14;99883.09;6153441;23;20467;-78
2021/12/22 08:34:39;;;;;;;36.97;18.42;;;;;;;-1.96;78.41;99890.94;6152781;23;20092;-78
2021/12/22 08:39:51;;;;;;;32.42;17.23;;;;;;;-1.99;78.60;99879.97;6130168;23;20016;-77
2021/12/22 08:42:17;;;;;;;35.22;18.25;;;;;;;-1.96;78.15;99885.72;6126430;23;20017;-77
2021/12/22 08:44:43;;;;;;;39.50;18.40;;;;;;;-1.94;78.18;99891.63;6078025;23;20040;-77
2021/12/22 08:47:08;;;;;;;38.65;18.52;;;;;;;-1.92;79.11;99888.88;6125741;23;20005;-77
2021/12/22 08:49:35;;;;;;;42.80;19.40;;;;;;;-1.92;78.84;99883.66;6108837;23;20087;-79
2021/12/22 08:52:01;;;;;;;35.63;18.65;;;;;;;-1.93;79.18;99879.38;6154229;23;20083;-79
2021/12/22 08:54:27;;;;;;;37.55;19.73;;;;;;;-1.88;78.61;99885.00;6130219;23;20442;-78
2021/12/22 08:56:55;;;;;;;34.00;18.65;;;;;;;-1.93;78.31;99869.75;6155719;23;20417;-78
2021/12/22 08:59:22;;;;;;;35.47;18.45;;;;;;;-1.86;78.11;99878.69;6156123;23;20344;-79
2021/12/22 09:01:49;;;;;;;37.65;19.17;;;;;;;-1.85;78.84;99882.09;6157040;23;20025;-78
2021/12/22 09:04:15;;;;;;;37.35;18.30;;;;;;;-1.84;79.11;99881.13;6155840;23;20451;-79
2021/12/22 09:06:43;;;;;;;31.88;17.15;;;;;;;-2.01;78.79;99855.75;6131861;23;20016;-79
2021/12/22 09:09:10;;;;;;;40.35;19.02;;;;;;;-1.84;77.97;99884.59;6130348;23;20005;-78
2021/12/22 09:11:37;;;;;;;37.72;19.20;;;;;;;-1.84;78.16;99889.00;6153126;23;20403;-78
2021/12/22 09:14:05;;;;;;;40.03;18.70;;;;;;;-1.82;78.03;99892.28;6130142;23;20009;-78
2021/12/22 09:16:32;;;;;;;31.52;16.58;;;;;;;-1.81;78.04;99880.81;6155193;23;20014;-79
2021/12/22 09:18:58;;;;;;;35.15;19.88;;;;;;;-1.82;78.21;99887.88;6154273;23;20390;-80
2021/12/22 09:21:24;;;;;;;31.23;18.10;;;;;;;-1.78;78.06;99888.41;6156926;23;20056;-80
2021/12/22 09:23:50;;;;;;;33.28;17.05;;;;;;;-1.83;78.12;99878.38;6105272;23;20455;-79
2021/12/22 09:26:15;;;;;;;27.85;16.17;;;;;;;-1.74;78.17;99892.38;6155361;23;20009;-79
2021/12/22 09:28:41;;;;;;;33.08;16.75;;;;;;;-1.75;78.20;99891.53;6131238;23;20013;-78
2021/12/22 09:31:09;;;;;;;33.63;16.02;;;;;;;-1.82;78.84;99869.56;6130926;23;20016;-78
2021/12/22 09:33:37;;;;;;;35.90;18.75;;;;;;;-1.72;77.93;99874.72;6131135;23;20021;-78
2021/12/22 09:36:05;;;;;;;35.45;18.35;;;;;;;-1.70;78.54;99885.88;6154999;23;20061;-79
2021/12/22 09:38:30;;;;;;;29.60;16.02;;;;;;;-1.68;78.60;99883.94;6154549;23;20064;-78
2021/12/22 09:40:56;;;;;;;29.10;16.85;;;;;;;-1.69;78.61;99875.28;6154784;23;20001;-79
2021/12/22 09:43:22;;;;;;;31.70;16.42;;;;;;;-1.64;78.65;99883.50;6129586;23;20352;-78
2021/12/22 09:45:53;;;;;;;30.63;15.98;;;;;;;-1.63;78.83;99881.72;6154923;23;20002;-78
2021/12/22 09:52:16;;;;;;;31.87;16.10;;;;;;;-1.60;78.10;99868.34;6157376;23;20044;-78
2021/12/22 09:53:45;;;;;;;31.73;16.48;;;;;;;-1.59;78.96;99869.97;6157259;23;20006;-79
2021/12/22 09:56:14;;;;;;;30.98;18.10;;;;;;;-1.61;78.64;99859.66;6129899;23;20387;-79
2021/12/22 09:58:42;;;;;;;27.77;15.88;;;;;;;-1.57;78.65;99866.25;6107229;23;20009;-79
2021/12/22 10:01:09;;;;;;;31.25;18.85;;;;;;;-1.55;78.08;99864.31;6133803;23;20009;-79
2021/12/22 10:03:35;;;;;;;35.22;18.75;;;;;;;-1.55;78.63;99869.53;6085428;23;20013;-79
2021/12/22 10:06:01;;;;;;;38.30;19.13;;;;;;;-1.53;78.06;99869.41;6082327;23;20091;-78
2021/12/22 10:08:28;;;;;;;38.47;19.25;;;;;;;-1.52;77.81;99869.25;6154591;23;20168;-79
2021/12/22 10:11:01;;;;;;;37.40;18.88;;;;;;;-1.52;78.28;99861.41;6104848;23;20018;-78
2021/12/22 10:13:28;;;;;;;42.63;20.63;;;;;;;-1.59;78.29;99842.03;6105286;23;20104;-79
2021/12/22 10:15:55;;;;;;;29.45;15.57;;;;;;;-1.51;78.09;99859.63;6130808;23;20023;-79
2021/12/22 10:18:25;;;;;;;36.85;17.90;;;;;;;-1.48;77.60;99845.41;6131549;23;20040;-79
2021/12/22 10:20:53;;;;;;;27.85;17.60;;;;;;;-1.47;78.00;99849.66;6155253;23;20002;-78
2021/12/22 10:23:30;;;;;;;31.15;16.83;;;;;;;-1.48;78.32;99845.41;6132025;23;20005;-78
2021/12/22 10:26:00;;;;;;;31.40;16.55;;;;;;;-1.46;77.77;99846.09;6155831;23;20007;-79
2021/12/22 10:28:28;;;;;;;33.42;17.17;;;;;;;-1.47;77.30;99839.19;6130411;23;20096;-79
2021/12/22 10:30:58;;;;;;;25.77;14.88;;;;;;;-1.47;77.99;99839.19;6131209;23;20005;-79
2021/12/22 10:33:27;;;;;;;30.25;15.93;;;;;;;-1.45;77.52;99845.09;6156227;23;20356;-79
2021/12/22 10:35:55;;;;;;;28.60;15.20;;;;;;;-1.48;77.98;99837.53;6156987;23;20095;-79
2021/12/22 10:38:24;;;;;;;30.25;16.77;;;;;;;-1.53;77.61;99830.97;6129341;23;20432;-79
2021/12/22 10:41:00;;;;;;;29.85;16.48;;;;;;;-1.42;77.64;99834.34;6128963;23;20013;-79
2021/12/22 10:43:30;;;;;;;;;;;;;;;-1.46;77.07;99831.19;6157909;23;20471;-79
2021/12/22 10:46:02;;;;;;;22.42;13.77;;;;;;;-1.46;77.66;99839.03;6155149;23;19912;-79
2021/12/22 10:51:25;;;;;;;26.55;15.52;;;;;;;-1.43;77.63;99830.91;6135272;23;20060;-79
2021/12/22 10:53:53;;;;;;;28.27;15.93;;;;;;;-1.40;77.69;99835.84;6155718;23;20009;-79
2021/12/22 10:56:38;;;;;;;27.42;16.05;;;;;;;-1.39;77.92;99831.41;6131002;23;20044;-78
2021/12/22 10:59:14;;;;;;;26.70;14.80;;;;;;;-1.38;77.83;99833.91;6131395;23;20033;-79
2021/12/22 11:01:41;;;;;;;30.17;16.60;;;;;;;-1.36;77.93;99831.13;6106687;23;20033;-79
2021/12/22 11:04:18;;;;;;;26.70;16.17;;;;;;;-1.34;78.61;99824.78;6106743;23;20341;-78
2021/12/22 11:06:44;;;;;;;27.67;15.73;;;;;;;-1.38;78.00;99818.19;6130434;23;20024;-78
2021/12/22 11:09:15;;;;;;;33.50;16.20;;;;;;;-1.30;78.21;99822.69;6131356;23;20009;-79
2021/12/22 11:11:51;;;;;;;32.20;15.68;;;;;;;-1.29;78.86;99822.56;6108867;23;20009;-78
2021/12/22 11:14:19;;;;;;;28.70;15.10;;;;;;;-1.27;78.40;99811.91;6131700;23;20006;-78
2021/12/22 11:17:02;;;;;;;27.13;15.30;;;;;;;-1.32;78.57;99808.91;6132448;23;20010;-78
2021/12/22 11:19:50;;;;;;;25.25;15.95;;;;;;;-1.29;78.35;99817.31;6156248;23;20076;-79
2021/12/22 11:22:18;;;;;;;27.45;16.83;;;;;;;-1.23;78.95;99819.31;6131697;23;20017;-79
2021/12/22 11:24:46;;;;;;;30.45;16.00;;;;;;;-1.21;79.14;99813.94;6131673;23;20013;-79
2021/12/22 11:27:14;;;;;;;25.58;15.27;;;;;;;-1.21;78.83;99809.53;6131837;23;20443;-79
2021/12/22 11:29:42;;;;;;;25.50;15.45;;;;;;;-1.19;78.66;99804.97;6128996;23;20468;-79
2021/12/22 11:32:09;;;;;;;32.38;16.83;;;;;;;-1.17;78.90;99800.38;6130965;23;20033;-78